createdAt,value
2019-04-14T00:00:34.087Z,16.41
2019-04-14T00:01:43.805Z,16.46
2019-04-14T00:02:53.562Z,16.48
2019-04-14T00:04:03.144Z,16.46
2019-04-14T00:05:12.724Z,16.45
2019-04-14T00:06:22.731Z,16.5
2019-04-14T00:07:32.080Z,16.42
2019-04-14T00:08:42.008Z,16.46
2019-04-14T00:09:52.099Z,16.5
2019-04-14T00:11:01.934Z,16.41
2019-04-14T00:12:14.261Z,16.46
2019-04-14T00:13:24.012Z,16.38
2019-04-14T00:14:33.809Z,16.42
2019-04-14T00:15:53.732Z,16.42
2019-04-14T00:17:04.380Z,16.42
2019-04-14T00:18:14.331Z,16.42
2019-04-14T00:19:24.025Z,16.41
2019-04-14T00:20:33.751Z,16.43
2019-04-14T00:21:43.607Z,16.42
2019-04-14T00:22:53.761Z,16.43
2019-04-14T00:24:03.272Z,16.39
2019-04-14T00:25:13.096Z,16.39
2019-04-14T00:26:23.032Z,16.42
2019-04-14T00:27:32.522Z,16.43
2019-04-14T00:28:42.926Z,16.41
2019-04-14T00:29:52.575Z,16.39
2019-04-14T00:31:02.350Z,16.42
2019-04-14T00:32:12.086Z,16.41
2019-04-14T00:33:21.729Z,16.35
2019-04-14T00:34:31.221Z,16.35
2019-04-14T00:35:40.860Z,16.39
2019-04-14T00:36:50.441Z,16.38
2019-04-14T00:38:04.201Z,16.34
2019-04-14T00:39:14.287Z,16.34
2019-04-14T00:40:26.579Z,16.38
2019-04-14T00:42:00.243Z,16.34
2019-04-14T00:43:13.624Z,16.41
2019-04-14T00:44:23.296Z,16.46
2019-04-14T00:45:53.427Z,16.38
2019-04-14T00:47:09.410Z,16.41
2019-04-14T00:48:25.845Z,16.41
2019-04-14T00:49:35.551Z,16.38
2019-04-14T00:50:45.618Z,16.42
2019-04-14T00:51:55.459Z,16.39
2019-04-14T00:53:08.043Z,16.42
2019-04-14T00:54:17.670Z,16.41
2019-04-14T00:55:27.205Z,16.42
2019-04-14T00:56:36.862Z,16.39
2019-04-14T00:57:46.408Z,16.42
2019-04-14T00:58:56.484Z,16.48
2019-04-14T01:00:06.227Z,16.38
2019-04-14T01:01:15.633Z,16.39
2019-04-14T01:02:25.504Z,16.43
2019-04-14T01:03:35.387Z,16.53
2019-04-14T01:04:47.042Z,16.34
2019-04-14T01:05:57.058Z,16.38
2019-04-14T01:07:06.629Z,16.5
2019-04-14T01:08:16.430Z,16.43
2019-04-14T01:09:35.197Z,16.42
2019-04-14T01:10:45.533Z,16.48
2019-04-14T01:11:55.970Z,16.41
2019-04-14T01:13:08.307Z,16.41
2019-04-14T01:14:21.350Z,16.46
2019-04-14T01:15:44.658Z,16.39
2019-04-14T01:17:13.519Z,16.48
2019-04-14T01:18:23.555Z,16.48
2019-04-14T01:19:33.397Z,16.49
2019-04-14T01:20:42.919Z,16.45
2019-04-14T01:21:52.609Z,16.42
2019-04-14T01:23:02.106Z,16.49
2019-04-14T01:24:12.077Z,16.5
2019-04-14T01:25:21.622Z,16.46
2019-04-14T01:26:31.143Z,16.48
2019-04-14T01:27:40.752Z,16.41
2019-04-14T01:28:50.879Z,16.41
2019-04-14T01:30:00.402Z,16.43
2019-04-14T01:31:09.992Z,16.42
2019-04-14T01:32:19.854Z,16.41
2019-04-14T01:33:29.496Z,16.42
2019-04-14T01:34:39.289Z,16.5
2019-04-14T01:35:48.965Z,16.45
2019-04-14T01:36:58.578Z,16.45
2019-04-14T01:38:08.743Z,16.46
2019-04-14T01:39:19.870Z,16.49
2019-04-14T01:40:29.320Z,16.39
2019-04-14T01:41:39.083Z,16.46
2019-04-14T01:42:48.883Z,16.48
2019-04-14T01:43:58.406Z,16.42
2019-04-14T01:45:08.330Z,16.39
2019-04-14T01:46:32.658Z,16.46
2019-04-14T01:47:44.596Z,16.42
2019-04-14T01:48:54.140Z,16.39
2019-04-14T01:50:04.342Z,16.39
2019-04-14T01:51:13.917Z,16.41
2019-04-14T01:52:23.341Z,16.39
2019-04-14T01:53:34.183Z,16.41
2019-04-14T01:54:43.516Z,16.35
2019-04-14T01:55:54.979Z,16.38
2019-04-14T01:57:04.697Z,16.42
2019-04-14T01:58:14.499Z,16.41
2019-04-14T01:59:24.228Z,16.35
2019-04-14T02:00:33.849Z,16.31
2019-04-14T02:01:44.047Z,16.35
2019-04-14T02:02:55.613Z,16.41
2019-04-14T02:04:05.337Z,16.38
2019-04-14T02:05:14.758Z,16.42
2019-04-14T02:06:24.861Z,16.41
2019-04-14T02:07:34.436Z,16.35
2019-04-14T02:08:43.789Z,16.39
2019-04-14T02:09:53.365Z,16.35
2019-04-14T02:11:03.658Z,16.31
2019-04-14T02:12:12.921Z,16.31
2019-04-14T02:13:22.861Z,16.38
2019-04-14T02:14:32.390Z,16.41
2019-04-14T02:15:42.147Z,16.35
2019-04-14T02:17:03.984Z,16.31
2019-04-14T02:18:18.437Z,16.31
2019-04-14T02:19:28.657Z,16.41
2019-04-14T02:20:38.372Z,16.33
2019-04-14T02:21:50.360Z,16.41
2019-04-14T02:23:01.925Z,16.41
2019-04-14T02:24:11.760Z,16.42
2019-04-14T02:25:23.532Z,16.34
2019-04-14T02:26:33.608Z,16.33
2019-04-14T02:27:45.159Z,16.34
2019-04-14T02:28:55.389Z,16.35
2019-04-14T02:30:10.039Z,16.42
2019-04-14T02:33:13.360Z,16.42
2019-04-14T02:37:10.075Z,16.34
2019-04-14T02:41:18.065Z,16.48
2019-04-14T03:01:37.026Z,16.42
2019-04-14T03:10:10.197Z,16.41
2019-04-14T03:13:58.053Z,16.39
2019-04-14T03:18:23.743Z,16.39
2019-04-14T03:22:19.582Z,16.42
2019-04-14T03:26:04.539Z,16.35
2019-04-14T03:30:32.553Z,16.43
2019-04-14T03:41:08.334Z,16.41
2019-04-14T03:44:55.975Z,16.31
2019-04-14T03:53:21.193Z,16.34
2019-04-14T03:55:55.181Z,16.28
2019-04-14T03:57:19.411Z,16.35
2019-04-14T03:58:29.394Z,16.33
2019-04-14T03:59:39.239Z,16.33
2019-04-14T04:00:49.225Z,16.33
2019-04-14T04:02:01.299Z,16.34
2019-04-14T04:03:10.754Z,16.34
2019-04-14T04:04:20.811Z,16.35
2019-04-14T04:05:30.670Z,16.33
2019-04-14T04:06:40.389Z,16.33
2019-04-14T04:07:49.757Z,16.38
2019-04-14T04:08:59.730Z,16.3
2019-04-14T04:10:09.542Z,16.34
2019-04-14T04:11:19.446Z,16.23
2019-04-14T04:12:29.459Z,16.3
2019-04-14T04:13:39.064Z,16.31
2019-04-14T04:14:48.688Z,16.33
2019-04-14T04:15:58.453Z,16.38
2019-04-14T04:17:08.064Z,16.35
2019-04-14T04:18:17.866Z,16.27
2019-04-14T04:19:27.683Z,16.38
2019-04-14T04:20:37.266Z,16.31
2019-04-14T04:21:46.723Z,16.35
2019-04-14T04:22:56.950Z,16.38
2019-04-14T04:24:06.595Z,16.38
2019-04-14T04:25:16.193Z,16.31
2019-04-14T04:26:25.901Z,16.31
2019-04-14T04:27:35.311Z,16.33
2019-04-14T04:28:45.175Z,16.41
2019-04-14T04:29:55.001Z,16.28
2019-04-14T04:31:04.664Z,16.31
2019-04-14T04:32:14.456Z,16.35
2019-04-14T04:33:24.566Z,16.38
2019-04-14T04:34:33.930Z,16.38
2019-04-14T04:35:43.997Z,16.33
2019-04-14T04:36:53.183Z,16.38
2019-04-14T04:38:03.120Z,16.33
2019-04-14T04:39:13.215Z,16.31
2019-04-14T04:40:22.870Z,16.34
2019-04-14T04:41:32.281Z,16.34
2019-04-14T04:42:42.011Z,16.35
2019-04-14T04:43:51.990Z,16.42
2019-04-14T04:45:02.156Z,16.42
2019-04-14T04:46:11.596Z,16.42
2019-04-14T04:47:21.082Z,16.42
2019-04-14T04:48:31.089Z,16.43
2019-04-14T04:49:40.590Z,16.42
2019-04-14T04:50:50.338Z,16.42
2019-04-14T04:51:59.778Z,16.39
2019-04-14T04:53:09.546Z,16.41
2019-04-14T04:54:19.115Z,16.49
2019-04-14T04:55:28.867Z,16.38
2019-04-14T04:56:38.501Z,16.38
2019-04-14T04:57:48.275Z,16.43
2019-04-14T04:58:57.431Z,16.41
2019-04-14T05:00:09.115Z,16.41
2019-04-14T05:01:18.995Z,16.41
2019-04-14T05:02:29.207Z,16.34
2019-04-14T05:03:38.628Z,16.38
2019-04-14T05:04:48.410Z,16.35
2019-04-14T05:05:57.989Z,16.42
2019-04-14T05:07:08.091Z,16.39
2019-04-14T05:08:17.486Z,16.39
2019-04-14T05:09:27.565Z,16.41
2019-04-14T05:10:37.232Z,16.27
2019-04-14T05:11:47.272Z,16.35
2019-04-14T05:13:03.025Z,16.33
2019-04-14T05:14:13.162Z,16.34
2019-04-14T05:15:22.738Z,16.31
2019-04-14T05:16:32.817Z,16.38
2019-04-14T05:17:43.074Z,16.34
2019-04-14T05:18:53.441Z,16.38
2019-04-14T05:20:18.492Z,16.38
2019-04-14T05:21:27.957Z,16.33
2019-04-14T05:22:37.955Z,16.35
2019-04-14T05:23:47.591Z,16.35
2019-04-14T05:24:57.261Z,16.35
2019-04-14T05:26:07.197Z,16.3
2019-04-14T05:27:17.122Z,16.28
2019-04-14T05:28:26.840Z,16.31
2019-04-14T05:29:36.525Z,16.31
2019-04-14T05:30:46.186Z,16.31
2019-04-14T05:31:55.817Z,16.35
2019-04-14T05:33:05.340Z,16.39
2019-04-14T05:34:15.168Z,16.28
2019-04-14T05:35:25.270Z,16.3
2019-04-14T05:36:34.957Z,16.31
2019-04-14T05:37:44.483Z,16.31
2019-04-14T05:38:54.120Z,16.21
2019-04-14T05:40:03.902Z,16.34
2019-04-14T05:41:13.749Z,16.31
2019-04-14T05:42:30.137Z,16.3
2019-04-14T05:44:00.240Z,16.3
2019-04-14T05:45:13.430Z,16.25
2019-04-14T05:46:23.281Z,16.27
2019-04-14T05:47:33.027Z,16.28
2019-04-14T05:48:42.605Z,16.3
2019-04-14T05:50:00.872Z,16.31
2019-04-14T05:51:11.093Z,16.3
2019-04-14T05:52:23.497Z,16.38
2019-04-14T05:53:32.771Z,16.35
2019-04-14T05:54:42.986Z,16.3
2019-04-14T05:55:52.850Z,16.3
2019-04-14T05:57:02.446Z,16.38
2019-04-14T05:58:12.345Z,16.35
2019-04-14T05:59:22.382Z,16.31
2019-04-14T06:00:32.519Z,16.33
2019-04-14T06:01:42.027Z,16.41
2019-04-14T06:02:52.630Z,16.33
2019-04-14T06:04:02.580Z,16.34
2019-04-14T06:05:16.470Z,16.33
2019-04-14T06:06:25.880Z,16.38
2019-04-14T06:07:35.578Z,16.34
2019-04-14T06:08:44.496Z,16.34
2019-04-14T06:09:53.641Z,16.43
2019-04-14T06:11:02.525Z,16.34
2019-04-14T06:12:11.400Z,16.43
2019-04-14T06:13:20.822Z,16.38
2019-04-14T06:14:30.239Z,16.39
2019-04-14T06:15:39.113Z,16.38
2019-04-14T06:16:47.990Z,16.38
2019-04-14T06:17:56.865Z,16.39
2019-04-14T06:19:05.738Z,16.35
2019-04-14T06:20:15.169Z,16.42
2019-04-14T06:21:24.041Z,16.34
2019-04-14T06:22:33.455Z,16.42
2019-04-14T06:23:42.597Z,16.39
2019-04-14T06:24:51.473Z,16.33
2019-04-14T06:26:00.952Z,16.39
2019-04-14T06:27:09.829Z,16.39
2019-04-14T06:28:19.264Z,16.41
2019-04-14T06:29:28.185Z,16.45
2019-04-14T06:30:37.051Z,16.39
2019-04-14T06:31:45.966Z,16.39
2019-04-14T06:32:54.842Z,16.41
2019-04-14T06:34:04.254Z,16.39
2019-04-14T06:35:13.432Z,16.39
2019-04-14T06:36:22.332Z,16.38
2019-04-14T06:37:31.473Z,16.35
2019-04-14T06:38:40.624Z,16.34
2019-04-14T06:39:49.766Z,16.35
2019-04-14T06:40:58.641Z,16.39
2019-04-14T06:42:07.785Z,16.28
2019-04-14T06:43:17.465Z,16.39
2019-04-14T06:44:26.348Z,16.34
2019-04-14T06:45:35.223Z,16.42
2019-04-14T06:46:44.150Z,16.42
2019-04-14T06:47:53.300Z,16.42
2019-04-14T06:49:02.491Z,16.34
2019-04-14T06:50:11.633Z,16.43
2019-04-14T06:51:20.817Z,16.39
2019-04-14T06:52:30.036Z,16.39
2019-04-14T06:53:39.450Z,16.38
2019-04-14T06:54:49.143Z,16.42
2019-04-14T06:55:59.783Z,16.45
2019-04-14T06:57:09.210Z,16.41
2019-04-14T06:58:18.627Z,16.41
2019-04-14T06:59:27.501Z,16.41
2019-04-14T07:00:36.377Z,16.31
2019-04-14T07:01:45.528Z,16.48
2019-04-14T07:02:54.437Z,16.42
2019-04-14T07:04:03.366Z,16.42
2019-04-14T07:05:13.044Z,16.41
2019-04-14T07:06:22.193Z,16.46
2019-04-14T07:07:31.081Z,16.45
2019-04-14T07:08:39.992Z,16.42
2019-04-14T07:09:49.151Z,16.49
2019-04-14T07:10:58.037Z,16.46
2019-04-14T07:12:07.422Z,16.49
2019-04-14T07:13:21.984Z,16.43
2019-04-14T07:14:36.453Z,16.46
2019-04-14T07:15:45.918Z,16.46
2019-04-14T07:16:56.190Z,16.48
2019-04-14T07:18:05.057Z,16.5
2019-04-14T07:19:16.886Z,16.43
2019-04-14T07:20:26.566Z,16.45
2019-04-14T07:21:36.302Z,16.53
2019-04-14T07:22:45.440Z,16.52
2019-04-14T07:23:54.588Z,16.52
2019-04-14T07:25:04.004Z,16.46
2019-04-14T07:26:12.894Z,16.43
2019-04-14T07:27:22.156Z,16.52
2019-04-14T07:28:32.167Z,16.49
2019-04-14T07:29:41.304Z,16.48
2019-04-14T07:30:50.450Z,16.52
2019-04-14T07:31:59.937Z,16.63
2019-04-14T07:33:08.859Z,16.53
2019-04-14T07:34:17.737Z,16.6
2019-04-14T07:35:26.881Z,16.6
2019-04-14T07:36:36.082Z,16.64
2019-04-14T07:37:45.229Z,16.58
2019-04-14T07:38:54.691Z,16.63
2019-04-14T07:40:03.853Z,16.64
2019-04-14T07:41:13.004Z,16.67
2019-04-14T07:42:21.875Z,16.67
2019-04-14T07:43:31.032Z,16.58
2019-04-14T07:44:40.441Z,16.64
2019-04-14T07:45:49.309Z,16.68
2019-04-14T07:46:58.188Z,16.64
2019-04-14T07:48:07.081Z,16.63
2019-04-14T07:49:15.955Z,16.68
2019-04-14T07:50:24.880Z,16.63
2019-04-14T07:51:34.023Z,16.71
2019-04-14T07:52:43.160Z,16.71
2019-04-14T07:53:52.302Z,16.75
2019-04-14T07:55:01.180Z,16.68
2019-04-14T07:56:10.645Z,16.71
2019-04-14T07:57:19.863Z,16.64
2019-04-14T07:58:28.740Z,16.71
2019-04-14T07:59:38.690Z,16.68
2019-04-14T08:00:47.558Z,16.75
2019-04-14T08:01:56.831Z,16.75
2019-04-14T08:03:05.726Z,16.81
2019-04-14T08:04:14.885Z,16.75
2019-04-14T08:05:24.028Z,16.75
2019-04-14T08:06:33.179Z,16.79
2019-04-14T08:07:45.634Z,16.71
2019-04-14T08:08:54.794Z,16.78
2019-04-14T08:10:03.706Z,16.73
2019-04-14T08:11:12.593Z,16.75
2019-04-14T08:12:21.466Z,16.81
2019-04-14T08:13:30.889Z,16.76
2019-04-14T08:14:39.768Z,16.76
2019-04-14T08:15:48.962Z,16.81
2019-04-14T08:16:58.108Z,16.79
2019-04-14T08:18:07.527Z,16.86
2019-04-14T08:19:16.725Z,16.86
2019-04-14T08:20:32.266Z,16.79
2019-04-14T08:21:41.141Z,16.89
2019-04-14T08:22:50.018Z,16.79
2019-04-14T08:23:59.439Z,16.79
2019-04-14T08:25:08.600Z,16.82
2019-04-14T08:26:18.014Z,16.88
2019-04-14T08:27:27.160Z,16.89
2019-04-14T08:28:36.035Z,16.89
2019-04-14T08:29:45.192Z,16.82
2019-04-14T08:30:54.121Z,16.86
2019-04-14T08:32:03.002Z,16.78
2019-04-14T08:33:11.908Z,16.89
2019-04-14T08:34:21.052Z,16.82
2019-04-14T08:35:29.941Z,16.91
2019-04-14T08:36:38.818Z,16.94
2019-04-14T08:37:48.011Z,16.88
2019-04-14T08:38:57.164Z,16.89
2019-04-14T08:40:06.651Z,16.83
2019-04-14T08:41:15.796Z,16.83
2019-04-14T08:42:24.741Z,16.89
2019-04-14T08:43:33.612Z,16.91
2019-04-14T08:44:44.286Z,16.91
2019-04-14T08:45:53.245Z,16.93
2019-04-14T08:47:02.119Z,16.96
2019-04-14T08:48:11.043Z,16.89
2019-04-14T08:49:20.186Z,16.91
2019-04-14T08:50:41.149Z,16.94
2019-04-14T08:51:50.026Z,16.97
2019-04-14T08:52:59.186Z,16.94
2019-04-14T08:54:08.108Z,16.97
2019-04-14T08:55:17.266Z,16.98
2019-04-14T08:56:26.152Z,16.93
2019-04-14T08:57:35.834Z,16.94
2019-04-14T08:58:44.975Z,16.98
2019-04-14T08:59:54.171Z,16.94
2019-04-14T09:01:03.329Z,16.96
2019-04-14T09:02:12.470Z,16.97
2019-04-14T09:03:21.615Z,16.94
2019-04-14T09:04:30.908Z,16.91
2019-04-14T09:05:40.106Z,16.91
2019-04-14T09:06:49.516Z,16.94
2019-04-14T09:07:58.396Z,16.97
2019-04-14T09:09:09.645Z,16.97
2019-04-14T09:10:18.523Z,16.94
2019-04-14T09:11:27.401Z,16.94
2019-04-14T09:12:36.273Z,16.96
2019-04-14T09:13:45.420Z,16.96
2019-04-14T09:15:01.551Z,16.91
2019-04-14T09:16:10.418Z,16.94
2019-04-14T09:17:19.606Z,17
2019-04-14T09:18:28.755Z,16.91
2019-04-14T09:19:37.634Z,16.93
2019-04-14T09:20:57.175Z,16.96
2019-04-14T09:22:06.319Z,16.98
2019-04-14T09:23:15.513Z,16.98
2019-04-14T09:24:24.658Z,16.98
2019-04-14T09:25:33.803Z,16.96
2019-04-14T09:26:42.948Z,16.96
2019-04-14T09:27:51.822Z,16.96
2019-04-14T09:29:00.742Z,16.97
2019-04-14T09:30:09.633Z,16.97
2019-04-14T09:31:19.344Z,16.93
2019-04-14T09:32:28.509Z,16.91
2019-04-14T09:33:37.447Z,17
2019-04-14T09:34:46.873Z,16.98
2019-04-14T09:35:56.011Z,16.97
2019-04-14T09:37:05.714Z,17
2019-04-14T09:38:17.062Z,16.91
2019-04-14T09:39:25.952Z,17.03
2019-04-14T09:40:35.378Z,16.98
2019-04-14T09:41:44.266Z,16.93
2019-04-14T09:42:53.163Z,17.06
2019-04-14T09:44:04.717Z,17.04
2019-04-14T09:45:13.598Z,17.08
2019-04-14T09:46:22.615Z,17.07
2019-04-14T09:47:32.598Z,17.04
2019-04-14T09:48:42.885Z,17.04
2019-04-14T09:49:51.869Z,16.94
2019-04-14T09:51:09.087Z,16.93
2019-04-14T09:52:18.280Z,16.93
2019-04-14T09:53:27.158Z,16.96
2019-04-14T09:54:36.302Z,17.03
2019-04-14T09:55:45.718Z,16.94
2019-04-14T09:56:55.127Z,16.93
2019-04-14T09:58:04.599Z,17.04
2019-04-14T09:59:13.521Z,17.04
2019-04-14T10:00:22.811Z,17.03
2019-04-14T10:01:32.263Z,17.04
2019-04-14T10:02:41.689Z,17.04
2019-04-14T10:03:51.106Z,16.97
2019-04-14T10:05:00.876Z,17.07
2019-04-14T10:06:10.444Z,17.08
2019-04-14T10:07:19.475Z,17.06
2019-04-14T10:08:28.623Z,17.08
2019-04-14T10:09:38.013Z,17.08
2019-04-14T10:10:47.605Z,17.01
2019-04-14T10:12:00.532Z,16.98
2019-04-14T10:13:09.693Z,17.03
2019-04-14T10:14:18.564Z,17.03
2019-04-14T10:15:27.757Z,17.01
2019-04-14T10:16:36.897Z,17.07
2019-04-14T10:17:46.042Z,17.07
2019-04-14T10:18:55.192Z,17.06
2019-04-14T10:20:04.068Z,17.01
2019-04-14T10:21:22.361Z,17.11
2019-04-14T10:22:38.421Z,17.06
2019-04-14T10:23:47.292Z,17.04
2019-04-14T10:24:56.442Z,17.06
2019-04-14T10:26:05.859Z,17.06
2019-04-14T10:27:14.730Z,17.11
2019-04-14T10:28:24.143Z,17.07
2019-04-14T10:29:33.022Z,17.06
2019-04-14T10:30:42.179Z,17.12
2019-04-14T10:31:51.424Z,17.08
2019-04-14T10:33:00.570Z,17.06
2019-04-14T10:34:12.410Z,17.07
2019-04-14T10:35:21.559Z,17.07
2019-04-14T10:36:30.717Z,17.03
2019-04-14T10:37:40.187Z,17.07
2019-04-14T10:38:49.611Z,17.06
2019-04-14T10:39:58.489Z,17.03
2019-04-14T10:41:10.879Z,17.03
2019-04-14T10:42:20.024Z,17.07
2019-04-14T10:43:28.902Z,17.06
2019-04-14T10:44:38.100Z,17.04
2019-04-14T10:45:47.532Z,17.14
2019-04-14T10:46:56.721Z,17.11
2019-04-14T10:48:05.599Z,17.08
2019-04-14T10:49:14.532Z,17.08
2019-04-14T10:50:34.959Z,17.11
2019-04-14T10:51:44.377Z,17.12
2019-04-14T10:52:53.261Z,17.04
2019-04-14T10:54:02.161Z,17.08
2019-04-14T10:55:11.094Z,17.06
2019-04-14T10:56:20.241Z,17.04
2019-04-14T10:57:29.662Z,17.07
2019-04-14T10:58:38.573Z,17.07
2019-04-14T10:59:47.446Z,17.14
2019-04-14T11:00:56.637Z,17.06
2019-04-14T11:02:05.515Z,17.11
2019-04-14T11:03:15.212Z,17.12
2019-04-14T11:04:24.086Z,17.08
2019-04-14T11:05:33.229Z,17.11
2019-04-14T11:06:42.365Z,17.03
2019-04-14T11:07:51.242Z,17.07
2019-04-14T11:09:00.659Z,17.07
2019-04-14T11:10:10.077Z,17.08
2019-04-14T11:11:19.483Z,17.07
2019-04-14T11:12:28.380Z,17.06
2019-04-14T11:13:37.528Z,17.07
2019-04-14T11:14:46.417Z,17.14
2019-04-14T11:15:55.293Z,17.06
2019-04-14T11:17:04.977Z,17.07
2019-04-14T11:18:13.851Z,17.03
2019-04-14T11:19:22.766Z,17.04
2019-04-14T11:20:32.179Z,17.03
2019-04-14T11:21:47.342Z,17.08
2019-04-14T11:23:07.392Z,17.12
2019-04-14T11:24:16.545Z,17.03
2019-04-14T11:25:25.417Z,17
2019-04-14T11:26:34.559Z,17.04
2019-04-14T11:27:43.720Z,17.08
2019-04-14T11:28:52.652Z,17.11
2019-04-14T11:30:01.565Z,17.04
2019-04-14T11:31:10.726Z,17.04
2019-04-14T11:32:19.605Z,17.15
2019-04-14T11:33:29.015Z,17.11
2019-04-14T11:34:38.428Z,17.04
2019-04-14T11:35:47.578Z,17.08
2019-04-14T11:36:56.754Z,17.11
2019-04-14T11:38:05.652Z,17.01
2019-04-14T11:39:14.521Z,17.15
2019-04-14T11:40:23.415Z,17.06
2019-04-14T11:41:32.578Z,17.07
2019-04-14T11:42:54.013Z,17.12
2019-04-14T11:44:03.201Z,17.08
2019-04-14T11:45:12.977Z,17.11
2019-04-14T11:46:22.117Z,17.07
2019-04-14T11:47:30.991Z,17.08
2019-04-14T11:48:40.137Z,17.07
2019-04-14T11:49:49.029Z,17.14
2019-04-14T11:50:57.925Z,17.15
2019-04-14T11:52:07.393Z,17.03
2019-04-14T11:53:16.289Z,17.14
2019-04-14T11:54:25.167Z,17.11
2019-04-14T11:55:34.314Z,17.08
2019-04-14T11:56:43.456Z,17.11
2019-04-14T11:57:52.390Z,17.12
2019-04-14T11:59:01.304Z,17.12
2019-04-14T12:00:10.475Z,17.14
2019-04-14T12:01:19.368Z,17.11
2019-04-14T12:02:28.795Z,17.14
2019-04-14T12:03:37.771Z,17.11
2019-04-14T12:04:46.982Z,17.12
2019-04-14T12:05:56.201Z,17.12
2019-04-14T12:07:05.353Z,17.11
2019-04-14T12:08:14.778Z,17.11
2019-04-14T12:09:23.967Z,17.11
2019-04-14T12:10:32.857Z,17.11
2019-04-14T12:11:41.728Z,17.12
2019-04-14T12:12:50.610Z,17.11
2019-04-14T12:13:59.824Z,17.08
2019-04-14T12:15:18.758Z,17.11
2019-04-14T12:16:27.636Z,17.08
2019-04-14T12:17:36.511Z,17.06
2019-04-14T12:18:45.655Z,17.12
2019-04-14T12:19:55.345Z,17.08
2019-04-14T12:21:04.545Z,17.07
2019-04-14T12:22:14.228Z,17.12
2019-04-14T12:23:23.105Z,17.07
2019-04-14T12:24:32.255Z,17.07
2019-04-14T12:25:41.131Z,17.11
2019-04-14T12:26:49.997Z,17.08
2019-04-14T12:28:00.384Z,17.12
2019-04-14T12:29:11.918Z,17.06
2019-04-14T12:30:22.489Z,17.11
2019-04-14T12:31:33.454Z,17.15
2019-04-14T12:32:42.652Z,17.12
2019-04-14T12:33:52.095Z,17.12
2019-04-14T12:35:00.971Z,17.08
2019-04-14T12:36:09.853Z,17.12
2019-04-14T12:37:18.736Z,17.14
2019-04-14T12:38:27.606Z,17.14
2019-04-14T12:39:36.742Z,17.12
2019-04-14T12:40:47.303Z,17.14
2019-04-14T12:41:57.058Z,17.08
2019-04-14T12:43:05.940Z,17.06
2019-04-14T12:44:14.861Z,17.06
2019-04-14T12:45:24.271Z,17.06
2019-04-14T12:46:33.162Z,17.14
2019-04-14T12:47:44.872Z,17.14
2019-04-14T12:48:54.012Z,17.16
2019-04-14T12:50:02.946Z,17.12
2019-04-14T12:51:12.089Z,17.11
2019-04-14T12:52:26.200Z,17.11
2019-04-14T12:53:35.396Z,17.07
2019-04-14T12:54:44.305Z,17.07
2019-04-14T12:55:53.224Z,17.08
2019-04-14T12:57:02.147Z,17.11
2019-04-14T12:58:13.458Z,17.14
2019-04-14T12:59:25.733Z,17.14
2019-04-14T13:00:34.614Z,17.11
2019-04-14T13:01:43.801Z,17.14
2019-04-14T13:02:53.221Z,17.14
2019-04-14T13:04:02.109Z,17.11
2019-04-14T13:05:11.263Z,17.12
2019-04-14T13:06:20.406Z,17.08
2019-04-14T13:07:29.595Z,17.12
2019-04-14T13:08:41.697Z,17.08
2019-04-14T13:09:50.572Z,17.11
2019-04-14T13:10:59.717Z,17.14
2019-04-14T13:12:10.373Z,17.08
2019-04-14T13:13:20.241Z,17.08
2019-04-14T13:14:29.648Z,17.07
2019-04-14T13:15:39.335Z,17.11
2019-04-14T13:16:48.740Z,17.11
2019-04-14T13:17:57.610Z,17.07
2019-04-14T13:19:07.075Z,17.08
2019-04-14T13:20:15.990Z,17.12
2019-04-14T13:21:25.133Z,17.14
2019-04-14T13:22:38.729Z,17.11
2019-04-14T13:23:47.875Z,17.11
2019-04-14T13:24:57.065Z,17.08
2019-04-14T13:26:05.974Z,17.11
2019-04-14T13:27:15.408Z,17.12
2019-04-14T13:28:24.293Z,17.01
2019-04-14T13:29:33.436Z,17.12
2019-04-14T13:30:42.849Z,17.12
2019-04-14T13:31:52.011Z,17.12
2019-04-14T13:33:01.159Z,17.11
2019-04-14T13:34:10.034Z,17.08
2019-04-14T13:35:18.920Z,17.12
2019-04-14T13:36:28.117Z,17.14
2019-04-14T13:37:36.996Z,17.12
2019-04-14T13:38:45.873Z,17.08
2019-04-14T13:39:54.748Z,17.15
2019-04-14T13:41:03.918Z,17.15
2019-04-14T13:42:13.111Z,17.16
2019-04-14T13:43:21.992Z,17.14
2019-04-14T13:44:30.891Z,17.06
2019-04-14T13:45:39.761Z,17.11
2019-04-14T13:46:48.900Z,17.11
2019-04-14T13:47:58.309Z,17.14
2019-04-14T13:49:07.725Z,17.08
2019-04-14T13:50:16.593Z,17.08
2019-04-14T13:51:26.016Z,17.06
2019-04-14T13:52:48.167Z,17.11
2019-04-14T13:53:57.903Z,17.11
2019-04-14T13:55:07.042Z,17.07
2019-04-14T13:56:15.918Z,17.12
2019-04-14T13:57:25.114Z,17.12
2019-04-14T13:58:37.027Z,17.08
2019-04-14T13:59:48.243Z,17.06
2019-04-14T14:00:57.721Z,17.04
2019-04-14T14:02:06.611Z,17.04
2019-04-14T14:03:15.484Z,17.18
2019-04-14T14:04:24.362Z,17.14
2019-04-14T14:05:33.309Z,17.08
2019-04-14T14:06:42.722Z,17.18
2019-04-14T14:07:51.895Z,17.12
2019-04-14T14:09:01.315Z,17.12
2019-04-14T14:10:10.194Z,17.07
2019-04-14T14:11:19.657Z,17.12
2019-04-14T14:12:28.815Z,17.03
2019-04-14T14:13:37.690Z,17.07
2019-04-14T14:14:46.567Z,17.04
2019-04-14T14:15:55.714Z,17.07
2019-04-14T14:17:04.603Z,17.11
2019-04-14T14:18:13.752Z,17.15
2019-04-14T14:19:23.183Z,17.08
2019-04-14T14:20:32.334Z,17.08
2019-04-14T14:21:41.487Z,17.08
2019-04-14T14:23:03.284Z,17.04
2019-04-14T14:24:12.765Z,17.07
2019-04-14T14:25:21.911Z,17.08
2019-04-14T14:26:30.794Z,17.06
2019-04-14T14:27:40.204Z,17.06
2019-04-14T14:28:49.358Z,17.06
2019-04-14T14:29:58.226Z,17.11
2019-04-14T14:31:07.112Z,17.08
2019-04-14T14:32:16.272Z,17.14
2019-04-14T14:33:25.408Z,17.16
2019-04-14T14:34:34.327Z,17.08
2019-04-14T14:35:43.212Z,17.11
2019-04-14T14:36:52.365Z,17.14
2019-04-14T14:38:01.240Z,17.08
2019-04-14T14:39:10.119Z,17.03
2019-04-14T14:40:19.579Z,17.08
2019-04-14T14:41:28.729Z,17.11
2019-04-14T14:42:37.658Z,17.07
2019-04-14T14:43:46.539Z,17.06
2019-04-14T14:44:55.961Z,17.11
2019-04-14T14:46:05.422Z,17.11
2019-04-14T14:47:14.325Z,17.06
2019-04-14T14:48:23.463Z,17.14
2019-04-14T14:49:32.335Z,17.14
2019-04-14T14:50:41.210Z,17.12
2019-04-14T14:51:50.367Z,17.15
2019-04-14T14:53:11.369Z,17.11
2019-04-14T14:54:20.758Z,17.11
2019-04-14T14:55:29.681Z,17.08
2019-04-14T14:56:38.570Z,17.06
2019-04-14T14:57:47.444Z,17.08
2019-04-14T14:58:56.605Z,17.14
2019-04-14T15:00:05.753Z,17.14
2019-04-14T15:01:14.689Z,17.07
2019-04-14T15:02:23.835Z,17.11
2019-04-14T15:03:33.244Z,17.08
2019-04-14T15:04:42.389Z,17.11
2019-04-14T15:05:51.262Z,17.11
2019-04-14T15:07:00.409Z,17.06
2019-04-14T15:08:09.828Z,17.12
2019-04-14T15:09:18.701Z,17.11
2019-04-14T15:10:27.860Z,17.08
2019-04-14T15:11:37.545Z,17.06
2019-04-14T15:12:46.687Z,17.12
2019-04-14T15:13:55.567Z,17.15
2019-04-14T15:15:04.431Z,17.07
2019-04-14T15:16:13.842Z,17.08
2019-04-14T15:17:22.726Z,17.06
2019-04-14T15:18:32.213Z,17.07
2019-04-14T15:19:41.361Z,17.12
2019-04-14T15:20:50.773Z,17.08
2019-04-14T15:21:59.923Z,17.06
2019-04-14T15:23:09.071Z,17.04
2019-04-14T15:24:31.211Z,17
2019-04-14T15:25:40.090Z,17.06
2019-04-14T15:26:49.022Z,17.03
2019-04-14T15:27:58.162Z,17.08
2019-04-14T15:29:07.310Z,17.01
2019-04-14T15:30:16.458Z,17.15
2019-04-14T15:31:25.648Z,17.04
2019-04-14T15:32:34.579Z,17.06
2019-04-14T15:33:43.457Z,17.08
2019-04-14T15:34:52.326Z,17.08
2019-04-14T15:36:01.472Z,17.03
2019-04-14T15:37:10.616Z,17.12
2019-04-14T15:38:19.811Z,17.11
2019-04-14T15:39:28.688Z,17.07
2019-04-14T15:40:37.573Z,17.06
2019-04-14T15:41:46.778Z,17.04
2019-04-14T15:42:55.920Z,17.07
2019-04-14T15:44:04.932Z,17.04
2019-04-14T15:45:16.250Z,17.07
2019-04-14T15:46:25.125Z,17.06
2019-04-14T15:47:34.011Z,17.06
2019-04-14T15:48:42.883Z,17.08
2019-04-14T15:49:51.819Z,17.04
2019-04-14T15:51:00.968Z,17.07
2019-04-14T15:52:10.118Z,17.11
2019-04-14T15:53:19.267Z,17.06
2019-04-14T15:54:29.917Z,17.07
2019-04-14T15:55:38.848Z,17.11
2019-04-14T15:56:48.012Z,17.08
2019-04-14T15:57:57.418Z,17.11
2019-04-14T15:59:06.299Z,17.06
2019-04-14T16:00:15.445Z,17.08
2019-04-14T16:01:24.633Z,17.11
2019-04-14T16:02:33.791Z,17.11
2019-04-14T16:03:42.946Z,17.11
2019-04-14T16:04:52.095Z,17.11
2019-04-14T16:06:00.964Z,17.07
2019-04-14T16:07:10.186Z,17.08
2019-04-14T16:08:19.103Z,17.11
2019-04-14T16:09:28.249Z,17.07
2019-04-14T16:10:37.122Z,17.06
2019-04-14T16:11:46.265Z,17.03